createdAt,value
2023-02-19T00:04:35.626Z,58.31
2023-02-19T00:09:37.193Z,57.16
2023-02-19T00:14:39.192Z,56.90
2023-02-19T00:19:40.849Z,57.84
2023-02-19T00:24:42.419Z,56.74
2023-02-19T00:29:44.226Z,56.99
2023-02-19T00:34:45.847Z,55.31
2023-02-19T00:39:56.451Z,56.57
2023-02-19T00:44:58.200Z,55.86
2023-02-19T00:49:59.818Z,56.60
2023-02-19T00:55:01.927Z,55.85
2023-02-19T01:00:04.436Z,56.60
2023-02-19T01:05:06.434Z,58.02
2023-02-19T01:10:11.164Z,56.04
2023-02-19T01:15:12.900Z,56.48
2023-02-19T01:20:14.655Z,56.64
2023-02-19T01:25:16.463Z,55.78
2023-02-19T01:30:18.262Z,55.02
2023-02-19T01:35:19.988Z,57.18
2023-02-19T01:40:21.888Z,56.79
2023-02-19T01:45:30.848Z,57.43
2023-02-19T01:50:37.955Z,56.57
2023-02-19T01:55:41.010Z,57.56
2023-02-19T02:00:48.057Z,57.04
2023-02-19T02:05:59.425Z,58.23
2023-02-19T02:11:01.172Z,57.55
2023-02-19T02:16:32.723Z,58.02
2023-02-19T02:21:55.528Z,57.57
2023-02-19T02:27:31.058Z,59.81
2023-02-19T02:32:42.821Z,57.97
2023-02-19T02:37:47.081Z,56.41
2023-02-19T02:42:48.831Z,58.98
2023-02-19T02:47:56.755Z,57.84
2023-02-19T02:53:23.613Z,59.32
2023-02-19T02:58:27.920Z,58.75
2023-02-19T03:03:31.780Z,58.84
2023-02-19T03:08:45.675Z,58.67
2023-02-19T03:14:05.927Z,58.24
2023-02-19T03:19:21.822Z,58.25
2023-02-19T03:24:48.424Z,58.55
2023-02-19T03:29:54.616Z,59.23
2023-02-19T03:35:06.510Z,59.74
2023-02-19T03:40:08.900Z,59.69
2023-02-19T03:45:43.049Z,56.87
2023-02-19T03:50:50.021Z,58.36
2023-02-19T03:56:34.034Z,57.61
2023-02-19T04:02:11.649Z,57.52
2023-02-19T04:07:13.779Z,57.02
2023-02-19T04:12:16.745Z,56.96
2023-02-19T04:17:48.462Z,56.53
2023-02-19T04:22:57.815Z,56.13
2023-02-19T04:27:59.502Z,57.35
2023-02-19T04:33:05.001Z,55.21
2023-02-19T04:38:06.758Z,55.85
2023-02-19T04:43:08.443Z,56.26
2023-02-19T04:48:10.415Z,54.50
2023-02-19T04:53:12.100Z,55.23
2023-02-19T04:58:13.851Z,56.41
2023-02-19T05:03:18.650Z,56.48
2023-02-19T05:08:20.532Z,55.93
2023-02-19T05:13:22.339Z,57.15
2023-02-19T05:18:24.150Z,55.93
2023-02-19T05:23:27.155Z,57.59
2023-02-19T05:28:29.105Z,57.13
2023-02-19T05:33:31.147Z,55.56
2023-02-19T05:38:32.846Z,55.35
2023-02-19T05:43:34.674Z,54.87
2023-02-19T05:48:36.732Z,54.53
2023-02-19T05:53:39.501Z,55.29
2023-02-19T05:58:41.127Z,54.73
2023-02-19T06:03:43.053Z,56.66
2023-02-19T06:08:44.907Z,56.15
2023-02-19T06:13:47.301Z,54.27
2023-02-19T06:18:49.085Z,54.74
2023-02-19T06:23:50.949Z,55.72
2023-02-19T06:28:53.548Z,54.40
2023-02-19T06:33:55.484Z,55.47
2023-02-19T06:39:00.817Z,56.05
2023-02-19T06:44:02.642Z,54.77
2023-02-19T06:49:05.623Z,55.73
2023-02-19T06:54:07.529Z,53.43
2023-02-19T06:59:19.231Z,55.11
2023-02-19T07:04:23.780Z,53.28
2023-02-19T07:09:25.542Z,54.01
2023-02-19T07:14:29.466Z,54.43
2023-02-19T07:19:31.257Z,55.00
2023-02-19T07:24:33.009Z,55.22
2023-02-19T07:29:34.782Z,55.58
2023-02-19T07:34:36.651Z,53.98
2023-02-19T07:39:38.592Z,55.70
2023-02-19T07:44:40.287Z,56.10
2023-02-19T07:49:41.895Z,54.41
2023-02-19T07:54:43.629Z,56.29
2023-02-19T07:59:45.451Z,55.83
2023-02-19T08:04:47.705Z,54.52
2023-02-19T08:10:09.317Z,54.16
2023-02-19T08:15:11.051Z,53.92
2023-02-19T08:20:12.857Z,54.34
2023-02-19T08:25:14.548Z,52.93
2023-02-19T08:30:16.326Z,53.66
2023-02-19T08:35:18.040Z,53.98
2023-02-19T08:40:19.830Z,52.68
2023-02-19T08:45:24.307Z,53.21
2023-02-19T08:50:26.847Z,53.71
2023-02-19T08:55:28.816Z,53.90
2023-02-19T09:00:30.750Z,53.63
2023-02-19T09:05:32.572Z,52.94
2023-02-19T09:10:37.132Z,53.55
2023-02-19T09:15:39.080Z,52.27
2023-02-19T09:20:40.820Z,53.77
2023-02-19T09:25:42.775Z,52.48
2023-02-19T09:30:44.515Z,52.32
2023-02-19T09:35:46.246Z,52.23
2023-02-19T09:40:48.026Z,52.34
2023-02-19T09:46:03.119Z,50.10
2023-02-19T09:51:06.965Z,52.46
2023-02-19T09:56:09.359Z,50.99
2023-02-19T10:01:12.501Z,50.71
2023-02-19T10:06:20.497Z,50.62
2023-02-19T10:11:25.854Z,52.85
2023-02-19T10:16:29.120Z,52.40
2023-02-19T10:21:33.578Z,50.28
2023-02-19T10:26:36.523Z,51.81
2023-02-19T10:31:38.391Z,52.24
2023-02-19T10:36:42.568Z,52.02
2023-02-19T10:41:46.967Z,51.47
2023-02-19T10:46:52.065Z,50.07
2023-02-19T10:51:56.770Z,50.31
2023-02-19T10:57:17.524Z,50.51
2023-02-19T11:06:30.286Z,56.94
2023-02-19T11:11:38.711Z,57.46
2023-02-19T11:17:03.960Z,57.32
2023-02-19T11:22:33.307Z,56.92
2023-02-19T11:27:34.949Z,55.88
2023-02-19T11:32:36.809Z,55.34
2023-02-19T11:37:57.838Z,55.36
2023-02-19T11:43:26.919Z,55.36
2023-02-19T11:48:54.897Z,55.31
2023-02-19T11:54:05.278Z,55.12
2023-02-19T11:59:45.194Z,55.59
2023-02-19T12:05:16.911Z,53.82
2023-02-19T12:10:43.135Z,53.32
2023-02-19T12:16:13.446Z,54.89
2023-02-19T12:21:51.558Z,54.95
2023-02-19T12:27:08.558Z,52.33
2023-02-19T12:32:28.115Z,53.91
2023-02-19T12:37:32.750Z,51.66
2023-02-19T12:42:34.468Z,52.30
2023-02-19T12:47:40.912Z,51.86
2023-02-19T12:52:47.760Z,51.99
2023-02-19T12:57:51.271Z,52.97
2023-02-19T13:03:20.898Z,53.19
2023-02-19T13:08:29.277Z,51.94
2023-02-19T13:13:44.664Z,52.09
2023-02-19T13:18:57.121Z,52.80
2023-02-19T13:24:03.179Z,53.31
2023-02-19T13:29:22.744Z,52.74
2023-02-19T13:34:47.901Z,52.91
2023-02-19T13:39:55.616Z,52.23
2023-02-19T13:44:58.851Z,52.72
2023-02-19T13:50:07.293Z,53.39
2023-02-19T13:55:50.946Z,53.45
2023-02-19T14:00:53.929Z,53.77
2023-02-19T14:06:06.399Z,53.56
2023-02-19T14:11:08.864Z,54.98
2023-02-19T14:16:35.203Z,54.32
2023-02-19T14:21:39.749Z,53.60
2023-02-19T14:26:42.340Z,53.65
2023-02-19T14:31:46.830Z,52.75
2023-02-19T14:36:54.831Z,51.24
2023-02-19T14:42:02.909Z,52.65
2023-02-19T14:47:09.562Z,50.71
2023-02-19T14:52:20.799Z,51.76
2023-02-19T14:57:27.624Z,51.63
2023-02-19T15:02:31.225Z,53.61
2023-02-19T15:07:34.200Z,51.56
2023-02-19T15:12:40.919Z,52.00
2023-02-19T15:17:42.866Z,52.61
2023-02-19T15:22:46.286Z,53.41
2023-02-19T15:27:48.305Z,51.59
2023-02-19T15:32:58.755Z,52.08
2023-02-19T15:38:01.215Z,51.57
2023-02-19T15:43:03.094Z,52.18
2023-02-19T15:48:11.798Z,51.18
2023-02-19T15:53:18.893Z,51.70
2023-02-19T15:58:33.379Z,52.30
2023-02-19T16:03:35.794Z,51.94
2023-02-19T16:08:39.853Z,52.49
2023-02-19T16:13:41.526Z,51.11
2023-02-19T16:18:48.834Z,52.05
2023-02-19T16:23:59.482Z,52.68
2023-02-19T16:29:01.236Z,51.99
2023-02-19T16:34:17.846Z,53.01
2023-02-19T16:39:20.957Z,53.28
2023-02-19T16:44:25.834Z,51.91
2023-02-19T16:49:27.521Z,50.27
2023-02-19T16:54:29.313Z,51.30
2023-02-19T16:59:31.057Z,51.46
2023-02-19T17:04:32.777Z,51.33
2023-02-19T17:09:34.589Z,51.33
2023-02-19T17:14:36.182Z,52.32
2023-02-19T17:19:39.322Z,50.60
2023-02-19T17:24:40.939Z,51.35
2023-02-19T17:29:42.878Z,51.70
2023-02-19T17:34:44.726Z,51.66
2023-02-19T17:39:46.378Z,50.37
2023-02-19T17:44:48.089Z,49.87
2023-02-19T17:49:49.698Z,50.02
2023-02-19T17:54:51.416Z,49.42
2023-02-19T17:59:53.101Z,49.96
2023-02-19T18:04:54.809Z,49.60
2023-02-19T18:09:56.536Z,50.88
2023-02-19T18:14:58.402Z,50.25
2023-02-19T18:20:00.508Z,50.37
2023-02-19T18:25:02.262Z,49.25
2023-02-19T18:30:04.560Z,50.60
2023-02-19T18:35:06.630Z,51.89
2023-02-19T18:40:09.351Z,49.46
2023-02-19T18:45:11.176Z,48.64
2023-02-19T18:50:13.810Z,50.38
2023-02-19T18:55:15.505Z,50.21
2023-02-19T19:00:26.556Z,50.98
2023-02-19T19:05:28.735Z,48.54
2023-02-19T19:10:30.986Z,48.73
2023-02-19T19:15:32.825Z,49.16
2023-02-19T19:20:34.671Z,49.37
2023-02-19T19:25:37.399Z,48.81
2023-02-19T19:30:39.231Z,48.29
2023-02-19T19:35:41.037Z,49.67
2023-02-19T19:40:42.640Z,49.43
2023-02-19T19:45:44.391Z,51.22
2023-02-19T19:50:46.118Z,51.46
2023-02-19T19:55:47.834Z,49.74
2023-02-19T20:00:49.565Z,50.41
2023-02-19T20:05:51.345Z,49.29
2023-02-19T20:10:53.010Z,49.92
2023-02-19T20:15:54.880Z,50.08
2023-02-19T20:20:56.540Z,49.51
2023-02-19T20:25:58.215Z,50.22
2023-02-19T20:30:59.953Z,49.82
2023-02-19T20:36:01.581Z,50.96
2023-02-19T20:41:04.187Z,48.64
2023-02-19T20:46:07.129Z,50.53
2023-02-19T20:51:09.100Z,48.49
2023-02-19T20:56:11.931Z,49.49
2023-02-19T21:01:13.858Z,46.50
2023-02-19T21:06:15.590Z,48.45
2023-02-19T21:11:17.436Z,49.36
2023-02-19T21:16:20.071Z,48.65
2023-02-19T21:21:25.364Z,49.77
2023-02-19T21:26:38.382Z,49.70
2023-02-19T21:31:45.951Z,48.48
2023-02-19T21:36:49.127Z,46.96
2023-02-19T21:41:51.777Z,47.35
2023-02-19T21:46:53.544Z,47.14
2023-02-19T21:51:55.245Z,46.90
2023-02-19T21:56:56.953Z,46.76
2023-02-19T22:01:58.663Z,47.32
2023-02-19T22:07:00.394Z,47.56
2023-02-19T22:12:02.074Z,48.68
2023-02-19T22:17:03.746Z,48.99
2023-02-19T22:22:05.736Z,48.24
2023-02-19T22:27:07.503Z,48.35
2023-02-19T22:32:09.416Z,47.73
2023-02-19T22:37:11.310Z,48.90
2023-02-19T22:42:12.991Z,47.82
2023-02-19T22:47:14.601Z,47.85
2023-02-19T22:52:16.347Z,48.38
2023-02-19T22:57:17.994Z,49.32
2023-02-19T23:02:19.731Z,49.87
2023-02-19T23:07:21.471Z,48.21
2023-02-19T23:12:23.306Z,50.50
2023-02-19T23:17:24.944Z,49.58
2023-02-19T23:22:26.639Z,49.05
2023-02-19T23:27:28.661Z,49.93
2023-02-19T23:32:30.404Z,49.14
2023-02-19T23:37:32.266Z,50.82
2023-02-19T23:42:34.027Z,51.67
2023-02-19T23:47:35.718Z,50.34
2023-02-19T23:52:37.427Z,49.75
2023-02-19T23:57:39.308Z,50.56
